TimeEDT,TemperatureF,Dew PointF,Humidity,Sea Level PressureIn,VisibilityMPH,Wind Direction,Wind SpeedMPH,Gust SpeedMPH,PrecipitationIn,Events,Conditions,WindDirDegrees,DateUTC
12:54 AM,75.9,73.0,91,30.30,10.0,Calm,Calm,-,N/A,,Clear,0,2013-07-05 04:54:00
1:54 AM,75.0,72.0,90,30.29,10.0,Calm,Calm,-,N/A,,Clear,0,2013-07-05 05:54:00
2:54 AM,75.0,72.0,90,30.28,10.0,Calm,Calm,-,N/A,,Clear,0,2013-07-05 06:54:00
3:54 AM,73.0,71.1,93,30.27,10.0,Calm,Calm,-,N/A,,Clear,0,2013-07-05 07:54:00
4:38 AM,73.4,71.6,94,30.27,1.5,Calm,Calm,-,N/A,,Clear,0,2013-07-05 08:38:00
4:47 AM,73.4,71.6,94,30.27,3.0,Calm,Calm,-,N/A,,Clear,0,2013-07-05 08:47:00
4:54 AM,73.0,70.0,90,30.27,10.0,SE,3.5,-,N/A,,Clear,140,2013-07-05 08:54:00
5:54 AM,73.9,72.0,93,30.28,10.0,Calm,Calm,-,N/A,,Clear,0,2013-07-05 09:54:00
6:54 AM,75.9,73.9,94,30.28,10.0,Calm,Calm,-,N/A,,Clear,0,2013-07-05 10:54:00
7:54 AM,81.0,75.9,85,30.30,10.0,South,5.8,-,N/A,,Clear,180,2013-07-05 11:54:00
8:54 AM,82.0,75.0,79,30.30,10.0,South,4.6,-,N/A,,Mostly Cloudy,180,2013-07-05 12:54:00
9:54 AM,81.0,75.0,82,30.30,9.0,Calm,Calm,-,0.04,Rain,Light Rain,0,2013-07-05 13:54:00
10:54 AM,87.1,73.9,65,30.31,10.0,South,8.1,-,0.00,,Partly Cloudy,180,2013-07-05 14:54:00
11:54 AM,88.0,73.0,61,30.30,10.0,SE,8.1,-,0.01,,Clear,140,2013-07-05 15:54:00
12:54 PM,89.1,72.0,57,30.30,10.0,South,8.1,-,N/A,,Partly Cloudy,180,2013-07-05 16:54:00
1:54 PM,91.0,73.0,55,30.28,10.0,South,9.2,-,N/A,,Partly Cloudy,190,2013-07-05 17:54:00
2:54 PM,89.1,72.0,57,30.27,10.0,South,11.5,18.4,N/A,,Scattered Clouds,170,2013-07-05 18:54:00
3:54 PM,90.0,73.0,57,30.25,10.0,South,10.4,-,N/A,,Scattered Clouds,190,2013-07-05 19:54:00
4:54 PM,86.0,72.0,63,30.23,10.0,SSE,10.4,-,N/A,,Scattered Clouds,160,2013-07-05 20:54:00
5:54 PM,88.0,73.0,61,30.22,10.0,South,9.2,-,N/A,,Partly Cloudy,170,2013-07-05 21:54:00
6:54 PM,84.9,72.0,65,30.23,10.0,South,9.2,-,N/A,,Clear,180,2013-07-05 22:54:00
7:54 PM,82.0,72.0,71,30.23,10.0,South,6.9,-,N/A,,Clear,180,2013-07-05 23:54:00
8:54 PM,79.0,72.0,79,30.25,10.0,South,4.6,-,N/A,,Clear,190,2013-07-06 00:54:00
9:54 PM,78.1,72.0,81,30.26,10.0,South,3.5,-,N/A,,Clear,180,2013-07-06 01:54:00
10:54 PM,75.9,72.0,87,30.28,10.0,Calm,Calm,-,N/A,,Clear,0,2013-07-06 02:54:00
11:54 PM,75.0,71.1,87,30.28,10.0,Calm,Calm,-,N/A,,Clear,0,2013-07-06 03:54:00